createdAt,value
2018-05-16T00:00:58.647Z,18.78
2018-05-16T00:01:58.619Z,18.76
2018-05-16T00:02:58.606Z,18.78
2018-05-16T00:03:58.577Z,18.69
2018-05-16T00:04:58.562Z,18.68
2018-05-16T00:05:58.534Z,18.69
2018-05-16T00:06:58.511Z,18.66
2018-05-16T00:07:58.484Z,18.69
2018-05-16T00:08:58.492Z,18.74
2018-05-16T00:09:58.480Z,18.68
2018-05-16T00:10:58.417Z,18.69
2018-05-16T00:11:58.426Z,18.65
2018-05-16T00:12:58.378Z,18.66
2018-05-16T00:13:58.347Z,18.66
2018-05-16T00:14:58.331Z,18.63
2018-05-16T00:15:58.320Z,18.61
2018-05-16T00:16:58.279Z,18.56
2018-05-16T00:17:58.260Z,18.47
2018-05-16T00:18:58.241Z,18.47
2018-05-16T00:19:58.217Z,18.45
2018-05-16T00:20:58.192Z,18.38
2018-05-16T00:21:58.176Z,18.38
2018-05-16T00:22:58.167Z,18.39
2018-05-16T00:23:58.128Z,18.34
2018-05-16T00:24:58.128Z,18.26
2018-05-16T00:25:58.086Z,18.24
2018-05-16T00:26:58.091Z,18.29
2018-05-16T00:27:59.845Z,18.16
2018-05-16T00:29:00.886Z,18.21
2018-05-16T00:29:59.161Z,18.19
2018-05-16T00:30:58.757Z,18.11
2018-05-16T00:31:57.956Z,18.13
2018-05-16T00:32:57.929Z,18.11
2018-05-16T00:33:57.909Z,18.05
2018-05-16T00:34:57.881Z,17.94
2018-05-16T00:35:57.863Z,17.87
2018-05-16T00:36:57.851Z,17.88
2018-05-16T00:37:57.820Z,17.77
2018-05-16T00:38:57.780Z,17.60
2018-05-16T00:39:57.760Z,17.60
2018-05-16T00:40:57.735Z,17.63
2018-05-16T00:41:57.714Z,17.55
2018-05-16T00:43:00.319Z,17.54
2018-05-16T00:43:57.669Z,17.46
2018-05-16T00:44:57.651Z,17.47
2018-05-16T00:45:57.641Z,17.40
2018-05-16T00:46:57.608Z,17.45
2018-05-16T00:47:57.596Z,17.43
2018-05-16T00:48:57.552Z,17.40
2018-05-16T00:49:57.533Z,17.36
2018-05-16T00:50:57.537Z,17.40
2018-05-16T00:51:57.498Z,17.36
2018-05-16T00:52:57.477Z,17.27
2018-05-16T00:53:57.442Z,17.28
2018-05-16T00:54:57.430Z,17.24
2018-05-16T00:55:57.399Z,17.10
2018-05-16T00:56:57.383Z,17.03
2018-05-16T00:57:57.347Z,17.18
2018-05-16T00:58:57.327Z,17.06
2018-05-16T00:59:57.317Z,17.10
2018-05-16T01:00:57.287Z,17.02
2018-05-16T01:01:57.260Z,16.99
2018-05-16T01:02:57.238Z,17.03
2018-05-16T01:03:57.208Z,17.07
2018-05-16T01:04:57.187Z,16.91
2018-05-16T01:05:57.171Z,16.94
2018-05-16T01:06:57.157Z,17.06
2018-05-16T01:07:57.197Z,16.92
2018-05-16T01:08:57.103Z,16.97
2018-05-16T01:09:57.076Z,16.99
2018-05-16T01:10:57.049Z,17.05
2018-05-16T01:11:57.041Z,17.05
2018-05-16T01:12:57.005Z,17.07
2018-05-16T01:13:56.996Z,17.03
2018-05-16T01:14:56.957Z,16.94
2018-05-16T01:15:56.933Z,16.99
2018-05-16T01:16:56.908Z,17.09
2018-05-16T01:17:56.888Z,17.02
2018-05-16T01:18:56.868Z,17.03
2018-05-16T01:19:56.832Z,17.10
2018-05-16T01:20:56.827Z,17.13
2018-05-16T01:21:56.790Z,17.03
2018-05-16T01:22:56.768Z,17.13
2018-05-16T01:23:56.750Z,16.97
2018-05-16T01:24:56.726Z,17.00
2018-05-16T01:25:56.703Z,16.80
2018-05-16T01:26:56.689Z,16.81
2018-05-16T01:27:56.650Z,16.81
2018-05-16T01:28:56.657Z,16.80
2018-05-16T01:29:56.599Z,16.85
2018-05-16T01:30:56.597Z,16.80
2018-05-16T01:31:56.564Z,16.76
2018-05-16T01:32:56.556Z,16.80
2018-05-16T01:33:56.524Z,16.82
2018-05-16T01:34:56.485Z,16.81
2018-05-16T01:35:56.474Z,16.76
2018-05-16T01:36:56.445Z,16.63
2018-05-16T01:37:56.415Z,16.66
2018-05-16T01:38:56.401Z,16.67
2018-05-16T01:39:56.434Z,16.72
2018-05-16T01:40:56.357Z,16.67
2018-05-16T01:41:56.341Z,16.67
2018-05-16T01:42:56.314Z,16.77
2018-05-16T01:43:56.287Z,16.67
2018-05-16T01:44:56.273Z,16.70
2018-05-16T01:45:56.256Z,16.69
2018-05-16T01:46:56.216Z,16.66
2018-05-16T01:47:56.195Z,16.65
2018-05-16T01:48:56.185Z,16.62
2018-05-16T01:49:56.164Z,16.66
2018-05-16T01:50:56.116Z,16.62
2018-05-16T01:51:56.096Z,16.52
2018-05-16T01:52:56.070Z,16.57
2018-05-16T01:53:56.050Z,16.52
2018-05-16T01:54:56.037Z,16.58
2018-05-16T01:55:55.999Z,16.47
2018-05-16T01:56:55.969Z,16.49
2018-05-16T01:57:55.958Z,16.42
2018-05-16T01:58:55.943Z,16.44
2018-05-16T01:59:55.902Z,16.51
2018-05-16T02:00:55.891Z,16.49
2018-05-16T02:01:55.882Z,16.48
2018-05-16T02:02:55.840Z,16.34
2018-05-16T02:03:55.813Z,16.45
2018-05-16T02:04:55.787Z,16.40
2018-05-16T02:05:55.768Z,16.36
2018-05-16T02:06:55.750Z,16.36
2018-05-16T02:07:55.718Z,16.33
2018-05-16T02:08:55.705Z,16.21
2018-05-16T02:09:55.682Z,16.25
2018-05-16T02:10:55.651Z,16.29
2018-05-16T02:11:55.649Z,16.27
2018-05-16T02:12:55.606Z,16.29
2018-05-16T02:13:55.582Z,16.26
2018-05-16T02:14:55.564Z,16.18
2018-05-16T02:15:55.530Z,16.18
2018-05-16T02:16:55.505Z,16.13
2018-05-16T02:17:55.482Z,16.14
2018-05-16T02:18:55.461Z,16.16
2018-05-16T02:19:55.442Z,15.98
2018-05-16T02:20:55.408Z,16.00
2018-05-16T02:21:55.396Z,15.95
2018-05-16T02:22:55.378Z,15.99
2018-05-16T02:23:55.344Z,15.95
2018-05-16T02:24:55.323Z,15.93
2018-05-16T02:25:55.299Z,15.96
2018-05-16T02:26:55.277Z,15.96
2018-05-16T02:27:55.254Z,15.98
2018-05-16T02:28:55.225Z,16.00
2018-05-16T02:29:55.196Z,15.95
2018-05-16T02:30:55.185Z,15.93
2018-05-16T02:31:55.160Z,16.00
2018-05-16T02:32:55.131Z,15.93
2018-05-16T02:33:55.108Z,15.93
2018-05-16T02:34:55.114Z,15.88
2018-05-16T02:35:55.065Z,15.84
2018-05-16T02:36:55.035Z,15.83
2018-05-16T02:37:55.027Z,15.83
2018-05-16T02:38:54.988Z,15.86
2018-05-16T02:39:54.967Z,15.83
2018-05-16T02:40:54.953Z,15.89
2018-05-16T02:41:54.926Z,15.78
2018-05-16T02:42:54.898Z,15.86
2018-05-16T02:43:54.868Z,15.70
2018-05-16T02:44:54.854Z,15.74
2018-05-16T02:45:54.832Z,15.70
2018-05-16T02:46:54.803Z,15.70
2018-05-16T02:47:54.791Z,15.71
2018-05-16T02:48:54.757Z,15.71
2018-05-16T02:49:54.730Z,15.71
2018-05-16T02:50:54.708Z,15.70
2018-05-16T02:51:54.682Z,15.71
2018-05-16T02:52:54.675Z,15.70
2018-05-16T02:53:54.643Z,15.68
2018-05-16T02:54:54.611Z,15.73
2018-05-16T02:55:54.593Z,15.75
2018-05-16T02:56:54.567Z,15.71
2018-05-16T02:57:54.574Z,15.71
2018-05-16T02:58:54.525Z,15.71
2018-05-16T02:59:54.525Z,15.77
2018-05-16T03:00:54.491Z,15.77
2018-05-16T03:01:54.490Z,15.74
2018-05-16T03:02:54.494Z,15.77
2018-05-16T03:03:54.450Z,15.77
2018-05-16T03:04:54.431Z,15.70
2018-05-16T03:05:54.406Z,15.70
2018-05-16T03:06:54.335Z,15.67
2018-05-16T03:07:54.310Z,15.73
2018-05-16T03:08:54.278Z,15.63
2018-05-16T03:09:54.274Z,15.68
2018-05-16T03:10:54.238Z,15.70
2018-05-16T03:11:54.217Z,15.60
2018-05-16T03:12:54.205Z,15.53
2018-05-16T03:13:54.166Z,15.60
2018-05-16T03:14:54.155Z,15.62
2018-05-16T03:15:54.122Z,15.55
2018-05-16T03:16:54.105Z,15.52
2018-05-16T03:17:54.080Z,15.55
2018-05-16T03:18:54.040Z,15.52
2018-05-16T03:19:54.026Z,15.51
2018-05-16T03:20:54.008Z,15.43
2018-05-16T03:21:54.000Z,15.49
2018-05-16T03:22:53.953Z,15.40
2018-05-16T03:23:53.931Z,15.43
2018-05-16T03:24:53.909Z,15.37
2018-05-16T03:25:53.876Z,15.44
2018-05-16T03:26:53.859Z,15.41
2018-05-16T03:27:53.845Z,15.43
2018-05-16T03:28:53.808Z,15.31
2018-05-16T03:29:53.794Z,15.26
2018-05-16T03:30:53.764Z,15.19
2018-05-16T03:31:53.744Z,15.26
2018-05-16T03:32:53.711Z,15.26
2018-05-16T03:33:53.703Z,15.26
2018-05-16T03:34:53.667Z,15.27
2018-05-16T03:35:53.641Z,15.33
2018-05-16T03:36:53.630Z,15.33
2018-05-16T03:37:53.588Z,15.16
2018-05-16T03:38:53.580Z,15.26
2018-05-16T03:39:53.553Z,15.18
2018-05-16T03:40:53.529Z,15.19
2018-05-16T03:41:53.510Z,15.18
2018-05-16T03:42:53.473Z,15.23
2018-05-16T03:43:53.457Z,15.20
2018-05-16T03:44:53.445Z,15.25
2018-05-16T03:45:53.495Z,15.18
2018-05-16T03:46:53.388Z,15.15
2018-05-16T03:47:53.361Z,15.10
2018-05-16T03:48:53.338Z,15.10
2018-05-16T03:49:53.321Z,15.15
2018-05-16T03:50:53.293Z,15.18
2018-05-16T03:51:53.362Z,15.15
2018-05-16T03:52:53.237Z,15.12
2018-05-16T03:53:53.230Z,15.07
2018-05-16T03:54:53.189Z,15.04
2018-05-16T03:55:53.175Z,15.08
2018-05-16T03:56:53.149Z,15.07
2018-05-16T03:57:53.162Z,15.05
2018-05-16T03:58:53.114Z,15.16
2018-05-16T03:59:53.088Z,15.13
2018-05-16T04:00:53.057Z,15.12
2018-05-16T04:01:53.024Z,15.07
2018-05-16T04:02:53.020Z,15.02
2018-05-16T04:03:52.989Z,15.01
2018-05-16T04:04:52.956Z,15.02
2018-05-16T04:05:52.931Z,15.10
2018-05-16T04:06:52.910Z,15.10
2018-05-16T04:07:52.893Z,15.13
2018-05-16T04:08:52.861Z,15.18
2018-05-16T04:09:52.837Z,15.15
2018-05-16T04:10:52.813Z,15.20
2018-05-16T04:11:52.811Z,15.19
2018-05-16T04:12:52.761Z,15.15
2018-05-16T04:13:52.753Z,15.08
2018-05-16T04:14:52.735Z,15.15
2018-05-16T04:15:52.702Z,15.10
2018-05-16T04:16:52.663Z,15.13
2018-05-16T04:17:52.648Z,15.12
2018-05-16T04:18:52.629Z,15.23
2018-05-16T04:19:52.654Z,15.20
2018-05-16T04:20:52.575Z,15.20
2018-05-16T04:21:52.560Z,15.18
2018-05-16T04:22:52.526Z,15.25
2018-05-16T04:23:52.514Z,15.25
2018-05-16T04:24:52.503Z,15.26
2018-05-16T04:25:52.455Z,15.34
2018-05-16T04:26:52.424Z,15.34
2018-05-16T04:27:52.415Z,15.35
2018-05-16T04:28:52.482Z,15.41
2018-05-16T04:29:52.367Z,15.37
2018-05-16T04:30:52.343Z,15.37
2018-05-16T04:31:52.318Z,15.34
2018-05-16T04:32:52.285Z,15.40
2018-05-16T04:33:52.259Z,15.51
2018-05-16T04:34:52.241Z,15.44
2018-05-16T04:35:52.250Z,15.38
2018-05-16T04:36:52.188Z,15.56
2018-05-16T04:37:52.169Z,15.51
2018-05-16T04:38:52.180Z,15.53
2018-05-16T04:39:52.122Z,15.52
2018-05-16T04:40:52.104Z,15.44
2018-05-16T04:41:52.135Z,15.49
2018-05-16T04:42:52.052Z,15.51
2018-05-16T04:43:52.033Z,15.59
2018-05-16T04:44:52.002Z,15.53
2018-05-16T04:45:52.012Z,15.62
2018-05-16T04:46:51.952Z,15.56
2018-05-16T04:47:51.940Z,15.71
2018-05-16T04:48:51.908Z,15.74
2018-05-16T04:49:51.879Z,15.77
2018-05-16T04:50:51.893Z,15.74
2018-05-16T04:51:51.838Z,15.74
2018-05-16T04:52:51.926Z,15.78
2018-05-16T04:53:51.796Z,15.81
2018-05-16T04:54:51.777Z,15.77
2018-05-16T04:55:51.769Z,15.83
2018-05-16T04:56:51.721Z,15.83
2018-05-16T04:57:51.698Z,15.84
2018-05-16T04:58:51.675Z,15.89
2018-05-16T04:59:51.653Z,15.78
2018-05-16T05:00:51.666Z,15.86
2018-05-16T05:01:51.607Z,15.96
2018-05-16T05:02:51.577Z,15.93
2018-05-16T05:03:51.544Z,15.98
2018-05-16T05:04:51.542Z,15.93
2018-05-16T05:05:51.501Z,15.95
2018-05-16T05:06:51.484Z,16.04
2018-05-16T05:07:51.463Z,16.04
2018-05-16T05:08:51.494Z,16.07
2018-05-16T05:09:51.419Z,16.13
2018-05-16T05:10:51.386Z,16.13
2018-05-16T05:11:53.443Z,16.14
2018-05-16T05:12:52.281Z,16.17
2018-05-16T05:13:53.665Z,16.17
2018-05-16T05:14:52.621Z,16.27
2018-05-16T05:15:51.270Z,16.22
2018-05-16T05:16:51.237Z,16.27
2018-05-16T05:17:51.229Z,16.22
2018-05-16T05:18:51.289Z,16.22
2018-05-16T05:19:51.168Z,16.18
2018-05-16T05:20:51.158Z,16.11
2018-05-16T05:21:51.147Z,15.98
2018-05-16T05:22:51.101Z,16.00
2018-05-16T05:23:51.078Z,15.96
2018-05-16T05:24:51.057Z,15.98
2018-05-16T05:25:51.047Z,16.07
2018-05-16T05:26:51.024Z,15.98
2018-05-16T05:27:50.991Z,16.07
2018-05-16T05:28:50.995Z,16.16
2018-05-16T05:29:50.944Z,16.14
2018-05-16T05:30:50.917Z,16.25
2018-05-16T05:31:50.886Z,16.21
2018-05-16T05:32:50.880Z,16.17
2018-05-16T05:33:50.853Z,16.21
2018-05-16T05:34:50.824Z,16.22
2018-05-16T05:35:50.802Z,16.21
2018-05-16T05:36:50.908Z,16.17
2018-05-16T05:37:50.749Z,16.27
2018-05-16T05:38:50.737Z,16.30
2018-05-16T05:39:50.705Z,16.26
2018-05-16T05:40:50.682Z,16.26
2018-05-16T05:41:50.684Z,16.21
2018-05-16T05:42:50.662Z,16.27
2018-05-16T05:43:50.611Z,16.30
2018-05-16T05:44:50.588Z,16.40
2018-05-16T05:45:50.569Z,16.42
2018-05-16T05:46:50.535Z,16.39
2018-05-16T05:47:50.527Z,16.55
2018-05-16T05:48:50.484Z,16.48
2018-05-16T05:49:50.491Z,16.57
2018-05-16T05:50:50.447Z,16.57
2018-05-16T05:51:50.417Z,16.63
2018-05-16T05:52:50.407Z,16.65
2018-05-16T05:53:50.387Z,16.55
2018-05-16T05:54:50.353Z,16.58
2018-05-16T05:55:50.331Z,16.62
2018-05-16T05:56:50.301Z,16.65
2018-05-16T05:57:50.284Z,16.66
2018-05-16T05:58:50.261Z,16.67
2018-05-16T05:59:50.233Z,16.77
2018-05-16T06:00:50.209Z,16.82
2018-05-16T06:01:50.193Z,16.81
2018-05-16T06:02:50.173Z,16.81
2018-05-16T06:03:50.150Z,16.92
2018-05-16T06:04:50.131Z,16.95
2018-05-16T06:05:50.103Z,16.91
2018-05-16T06:06:50.077Z,16.94
2018-05-16T06:07:50.145Z,16.99
2018-05-16T06:08:50.053Z,17.02
2018-05-16T06:09:49.993Z,17.18
2018-05-16T06:10:50.006Z,17.21
2018-05-16T06:11:49.951Z,17.20
2018-05-16T06:12:50.404Z,17.20
2018-05-16T06:13:49.911Z,17.20
2018-05-16T06:14:50.010Z,17.17
2018-05-16T06:15:49.865Z,17.15
2018-05-16T06:16:49.842Z,17.20
2018-05-16T06:17:49.813Z,17.24
2018-05-16T06:18:49.791Z,17.17
2018-05-16T06:19:49.816Z,17.25
2018-05-16T06:20:49.754Z,17.24
2018-05-16T06:21:49.722Z,17.22
2018-05-16T06:22:49.698Z,17.18
2018-05-16T06:23:49.673Z,17.30
2018-05-16T06:24:49.664Z,17.30
2018-05-16T06:25:49.635Z,17.27
2018-05-16T06:26:49.605Z,17.30
2018-05-16T06:27:49.591Z,17.13
2018-05-16T06:28:49.553Z,17.17
2018-05-16T06:29:49.553Z,17.13
2018-05-16T06:30:49.512Z,17.18
2018-05-16T06:31:49.484Z,17.15
2018-05-16T06:32:49.515Z,17.20
2018-05-16T06:33:49.449Z,17.21
2018-05-16T06:34:49.422Z,17.22
2018-05-16T06:35:49.401Z,17.20
2018-05-16T06:36:49.376Z,17.18
2018-05-16T06:37:49.380Z,17.25
2018-05-16T06:38:49.320Z,17.31
2018-05-16T06:39:49.323Z,17.27
2018-05-16T06:40:49.392Z,17.38
2018-05-16T06:41:49.255Z,17.30
2018-05-16T06:42:49.235Z,17.31
2018-05-16T06:43:49.205Z,17.31
2018-05-16T06:44:49.180Z,17.39
2018-05-16T06:45:49.248Z,17.32
2018-05-16T06:46:49.144Z,17.39
2018-05-16T06:47:49.131Z,17.39
2018-05-16T06:48:49.092Z,17.42
2018-05-16T06:49:49.086Z,17.43
2018-05-16T06:50:49.041Z,17.39
2018-05-16T06:51:49.017Z,17.38
2018-05-16T06:52:48.998Z,17.40
2018-05-16T06:53:48.971Z,17.39
2018-05-16T06:54:48.955Z,17.45
2018-05-16T06:55:48.932Z,17.36
2018-05-16T06:56:48.910Z,17.38
2018-05-16T06:57:48.877Z,17.42
2018-05-16T06:58:48.864Z,17.46
2018-05-16T06:59:48.838Z,17.40
2018-05-16T07:00:48.807Z,17.43
2018-05-16T07:01:48.784Z,17.35
2018-05-16T07:02:48.763Z,17.40
2018-05-16T07:03:48.750Z,17.35
2018-05-16T07:04:48.725Z,17.32
2018-05-16T07:05:48.688Z,17.36
2018-05-16T07:06:48.680Z,17.40
2018-05-16T07:07:48.651Z,17.36
2018-05-16T07:08:48.628Z,17.42
2018-05-16T07:09:48.604Z,17.38
2018-05-16T07:10:48.578Z,17.32
2018-05-16T07:11:48.551Z,17.39
2018-05-16T07:12:48.533Z,17.36
2018-05-16T07:13:48.505Z,17.35
2018-05-16T07:14:48.492Z,17.31
2018-05-16T07:15:48.474Z,17.38
2018-05-16T07:16:48.441Z,17.38
2018-05-16T07:17:48.418Z,17.42
2018-05-16T07:18:48.385Z,17.35
2018-05-16T07:19:48.365Z,17.40
2018-05-16T07:20:48.345Z,17.39
2018-05-16T07:21:48.318Z,17.35
2018-05-16T07:22:48.359Z,17.38
2018-05-16T07:23:48.286Z,17.24
2018-05-16T07:24:48.455Z,17.31
2018-05-16T07:25:49.441Z,17.40
2018-05-16T07:26:48.258Z,17.35
2018-05-16T07:27:48.193Z,17.24
2018-05-16T07:28:48.161Z,17.22
2018-05-16T07:29:48.135Z,17.24
2018-05-16T07:30:48.118Z,17.30
2018-05-16T07:31:48.093Z,17.36
2018-05-16T07:32:48.077Z,17.30
2018-05-16T07:33:48.044Z,17.40
2018-05-16T07:34:48.017Z,17.32
2018-05-16T07:35:47.999Z,17.40
2018-05-16T07:36:47.976Z,17.39
2018-05-16T07:37:47.951Z,17.38
2018-05-16T07:38:47.924Z,17.24
2018-05-16T07:39:47.908Z,17.20
2018-05-16T07:40:47.880Z,17.22
2018-05-16T07:41:47.864Z,17.22
2018-05-16T07:42:47.849Z,17.32
2018-05-16T07:43:47.811Z,17.31
2018-05-16T07:44:47.789Z,17.28
2018-05-16T07:45:47.757Z,17.28
2018-05-16T07:46:47.744Z,17.31
2018-05-16T07:47:47.727Z,17.30
2018-05-16T07:48:47.702Z,17.28
2018-05-16T07:49:47.678Z,17.35
2018-05-16T07:50:47.645Z,17.39
2018-05-16T07:51:47.631Z,17.35
2018-05-16T07:52:47.601Z,17.38
2018-05-16T07:53:47.595Z,17.42
2018-05-16T07:54:47.559Z,17.38
2018-05-16T07:55:47.537Z,17.40
2018-05-16T07:56:47.501Z,17.49
2018-05-16T07:57:47.512Z,17.46
2018-05-16T07:58:47.465Z,17.57
2018-05-16T07:59:47.446Z,17.65
2018-05-16T08:00:47.421Z,17.66
2018-05-16T08:01:47.393Z,17.60
2018-05-16T08:02:47.368Z,17.54
2018-05-16T08:03:47.356Z,17.60
2018-05-16T08:04:47.321Z,17.80
2018-05-16T08:05:47.296Z,17.80
2018-05-16T08:06:47.276Z,17.94
2018-05-16T08:07:47.256Z,18.08
2018-05-16T08:08:47.237Z,18.08
2018-05-16T08:09:47.214Z,18.24
2018-05-16T08:10:47.187Z,18.31
2018-05-16T08:11:47.162Z,18.49
2018-05-16T08:12:47.143Z,18.51
2018-05-16T08:13:47.126Z,18.50
2018-05-16T08:14:47.093Z,18.38
2018-05-16T08:15:47.072Z,18.34
2018-05-16T08:16:47.053Z,18.42
2018-05-16T08:17:47.020Z,18.51
2018-05-16T08:18:47.004Z,18.41
2018-05-16T08:19:46.979Z,18.16
2018-05-16T08:20:46.954Z,18.10
2018-05-16T08:21:47.006Z,18.11
2018-05-16T08:22:46.986Z,18.19
2018-05-16T08:23:46.887Z,18.39
2018-05-16T08:24:46.870Z,18.49
2018-05-16T08:25:46.839Z,18.57
2018-05-16T08:26:46.817Z,18.65
2018-05-16T08:27:46.800Z,18.51
2018-05-16T08:28:46.801Z,18.59
2018-05-16T08:29:46.753Z,18.69
2018-05-16T08:30:46.726Z,18.74
2018-05-16T08:31:46.701Z,18.57
2018-05-16T08:32:46.693Z,18.60
2018-05-16T08:33:46.667Z,18.72
2018-05-16T08:34:46.630Z,18.72
2018-05-16T08:35:46.622Z,18.44
2018-05-16T08:36:46.665Z,18.35
2018-05-16T08:37:46.561Z,18.39
2018-05-16T08:38:46.548Z,18.39
2018-05-16T08:39:46.519Z,18.32
2018-05-16T08:40:46.509Z,18.39
2018-05-16T08:41:46.478Z,18.16
2018-05-16T08:42:46.458Z,18.26
2018-05-16T08:43:46.446Z,18.11
2018-05-16T08:44:46.411Z,18.20
2018-05-16T08:45:46.390Z,18.32
2018-05-16T08:46:46.365Z,18.50
2018-05-16T08:47:46.337Z,18.59
2018-05-16T08:48:46.320Z,18.66
2018-05-16T08:49:46.295Z,18.63
2018-05-16T08:50:46.277Z,18.71
2018-05-16T08:51:46.245Z,18.68
2018-05-16T08:52:46.224Z,18.71
2018-05-16T08:53:46.212Z,18.71
2018-05-16T08:54:46.174Z,18.87
2018-05-16T08:55:46.166Z,18.87
2018-05-16T08:56:46.142Z,18.81
2018-05-16T08:57:46.112Z,18.86
2018-05-16T08:58:46.107Z,18.94
2018-05-16T08:59:46.077Z,19.06
2018-05-16T09:00:46.051Z,19.16
2018-05-16T09:01:46.023Z,19.31
2018-05-16T09:02:46.002Z,19.43
2018-05-16T09:03:45.977Z,19.42
2018-05-16T09:04:45.962Z,19.49
2018-05-16T09:05:45.940Z,19.55
2018-05-16T09:06:45.903Z,19.53
2018-05-16T09:07:45.907Z,19.53
2018-05-16T09:08:45.871Z,19.43
2018-05-16T09:09:45.852Z,19.19
2018-05-16T09:10:45.823Z,19.30
2018-05-16T09:11:45.810Z,19.32
2018-05-16T09:12:45.778Z,19.42
2018-05-16T09:13:45.765Z,19.30
2018-05-16T09:14:45.728Z,19.28
2018-05-16T09:15:45.707Z,19.28
2018-05-16T09:16:45.691Z,19.30
2018-05-16T09:17:45.675Z,19.30
2018-05-16T09:18:45.651Z,19.20
2018-05-16T09:19:45.626Z,19.10
2018-05-16T09:20:45.598Z,19.19
2018-05-16T09:21:45.614Z,19.24
2018-05-16T09:22:45.548Z,19.30
2018-05-16T09:23:45.541Z,19.27
2018-05-16T09:24:45.523Z,19.38
2018-05-16T09:25:45.481Z,19.43
2018-05-16T09:26:45.470Z,19.52
2018-05-16T09:27:45.439Z,19.65
2018-05-16T09:28:45.423Z,19.56
2018-05-16T09:29:45.397Z,19.56
2018-05-16T09:30:45.377Z,19.43
2018-05-16T09:31:45.352Z,19.35
2018-05-16T09:32:45.331Z,19.07
2018-05-16T09:33:45.314Z,19.12
2018-05-16T09:34:45.286Z,19.15
2018-05-16T09:35:45.272Z,19.25
2018-05-16T09:36:45.240Z,19.32
2018-05-16T09:37:45.213Z,19.42
2018-05-16T09:38:45.199Z,19.28
2018-05-16T09:39:45.174Z,19.38
2018-05-16T09:40:45.150Z,19.28
2018-05-16T09:41:45.136Z,19.35
2018-05-16T09:42:45.103Z,19.43
2018-05-16T09:43:45.088Z,19.45
2018-05-16T09:44:45.066Z,19.55
2018-05-16T09:45:45.106Z,19.75
2018-05-16T09:46:45.021Z,19.89
2018-05-16T09:47:44.988Z,20.07
2018-05-16T09:48:44.969Z,19.70
2018-05-16T09:49:44.942Z,19.67
2018-05-16T09:50:44.930Z,19.61
2018-05-16T09:51:44.909Z,19.55
2018-05-16T09:52:44.884Z,19.72
2018-05-16T09:53:44.856Z,19.97
2018-05-16T09:54:44.838Z,20.12
2018-05-16T09:55:44.822Z,20.08
2018-05-16T09:56:44.786Z,20.29
2018-05-16T09:57:44.794Z,20.11
2018-05-16T09:58:44.847Z,19.89
2018-05-16T09:59:44.724Z,19.97
2018-05-16T10:00:44.709Z,19.79
2018-05-16T10:01:44.683Z,20.05
2018-05-16T10:02:44.721Z,20.19
2018-05-16T10:03:44.636Z,20.38
2018-05-16T10:04:44.636Z,20.42
2018-05-16T10:05:44.594Z,20.54
2018-05-16T10:06:44.576Z,20.38
2018-05-16T10:07:44.552Z,20.27
2018-05-16T10:08:44.530Z,20.37
2018-05-16T10:09:44.570Z,20.48
2018-05-16T10:10:44.487Z,20.72
2018-05-16T10:11:44.466Z,20.68
2018-05-16T10:12:44.467Z,20.83
2018-05-16T10:13:44.429Z,21.00
2018-05-16T10:14:44.404Z,20.96
2018-05-16T10:15:44.399Z,21.18
2018-05-16T10:16:44.349Z,21.08
2018-05-16T10:17:44.341Z,21.12
2018-05-16T10:18:44.319Z,21.00
2018-05-16T10:19:44.302Z,20.83
2018-05-16T10:20:44.270Z,20.85
2018-05-16T10:21:44.257Z,20.75
2018-05-16T10:22:44.243Z,20.60
2018-05-16T10:23:44.230Z,20.74
2018-05-16T10:24:44.184Z,20.67
2018-05-16T10:25:44.167Z,20.86
2018-05-16T10:26:44.140Z,20.90
2018-05-16T10:27:44.143Z,20.85
2018-05-16T10:28:44.095Z,20.75
2018-05-16T10:29:44.090Z,20.91
2018-05-16T10:30:44.060Z,20.88
2018-05-16T10:31:44.034Z,20.85
2018-05-16T10:32:44.017Z,20.86
2018-05-16T10:33:43.987Z,20.93
2018-05-16T10:34:43.968Z,20.97
2018-05-16T10:35:43.957Z,21.03
2018-05-16T10:36:43.942Z,21.01
2018-05-16T10:37:43.921Z,21.03
2018-05-16T10:38:43.883Z,21.00
2018-05-16T10:39:43.870Z,21.01
2018-05-16T10:40:43.847Z,21.12
2018-05-16T10:41:43.819Z,21.15
2018-05-16T10:42:43.803Z,21.21
2018-05-16T10:43:43.781Z,21.23
2018-05-16T10:44:43.757Z,21.22
2018-05-16T10:45:43.744Z,21.30
2018-05-16T10:46:43.716Z,21.21
2018-05-16T10:47:43.697Z,21.09
2018-05-16T10:48:43.678Z,21.22
2018-05-16T10:49:43.651Z,21.38
2018-05-16T10:50:43.726Z,21.62
2018-05-16T10:51:43.623Z,21.89
2018-05-16T10:52:43.605Z,22.12
2018-05-16T10:53:43.574Z,22.31
2018-05-16T10:54:43.561Z,22.31
2018-05-16T10:55:43.527Z,22.24
2018-05-16T10:56:43.505Z,22.24
2018-05-16T10:57:43.494Z,22.27
2018-05-16T10:58:43.772Z,22.07
2018-05-16T10:59:43.447Z,21.83
2018-05-16T11:00:43.419Z,21.86
2018-05-16T11:01:43.403Z,21.90
2018-05-16T11:02:43.379Z,22.04
2018-05-16T11:03:43.367Z,22.05
2018-05-16T11:04:43.352Z,21.90
2018-05-16T11:05:43.325Z,21.86
2018-05-16T11:06:43.316Z,21.83
2018-05-16T11:07:43.288Z,22.00
2018-05-16T11:08:43.264Z,21.89
2018-05-16T11:09:43.238Z,21.89
2018-05-16T11:10:43.218Z,21.96
2018-05-16T11:11:43.201Z,21.82
2018-05-16T11:12:43.178Z,21.80
2018-05-16T11:13:43.153Z,21.94
2018-05-16T11:14:43.158Z,21.96
2018-05-16T11:15:43.111Z,21.83
2018-05-16T11:16:43.106Z,21.85
2018-05-16T11:17:43.075Z,22.00
2018-05-16T11:18:43.049Z,21.96
2018-05-16T11:19:43.035Z,21.97
2018-05-16T11:20:43.014Z,21.96
2018-05-16T11:21:42.998Z,21.80
2018-05-16T11:22:42.973Z,21.68
2018-05-16T11:23:42.949Z,21.85
2018-05-16T11:24:42.928Z,22.00
2018-05-16T11:25:42.916Z,22.00
2018-05-16T11:26:42.906Z,22.08
2018-05-16T11:27:42.880Z,22.09
2018-05-16T11:28:42.851Z,22.20
2018-05-16T11:29:42.831Z,22.29
2018-05-16T11:30:42.810Z,22.34
2018-05-16T11:31:42.797Z,22.54
2018-05-16T11:32:43.586Z,22.49
2018-05-16T11:33:42.746Z,22.48
2018-05-16T11:34:42.725Z,22.24
2018-05-16T11:35:42.701Z,22.31
2018-05-16T11:36:42.706Z,22.05
2018-05-16T11:37:42.663Z,22.05
2018-05-16T11:38:42.667Z,22.00
2018-05-16T11:39:42.626Z,22.11
2018-05-16T11:40:42.606Z,22.04
2018-05-16T11:41:42.593Z,21.99
2018-05-16T11:42:42.574Z,22.08
2018-05-16T11:43:42.545Z,21.99
2018-05-16T11:44:42.532Z,21.96
2018-05-16T11:45:42.505Z,22.07
2018-05-16T11:46:42.482Z,22.08
2018-05-16T11:47:42.459Z,22.23
2018-05-16T11:48:42.527Z,22.08
2018-05-16T11:49:42.420Z,22.16
2018-05-16T11:50:42.399Z,22.23
2018-05-16T11:51:42.382Z,22.34
2018-05-16T11:52:42.356Z,22.42
2018-05-16T11:53:42.332Z,22.52
2018-05-16T11:54:42.311Z,22.51
2018-05-16T11:55:42.295Z,22.48
2018-05-16T11:56:42.276Z,22.44
2018-05-16T11:57:42.256Z,22.36
2018-05-16T11:58:42.232Z,22.36
2018-05-16T11:59:42.214Z,22.54
2018-05-16T12:00:42.207Z,22.46
2018-05-16T12:01:42.175Z,22.36
2018-05-16T12:02:42.158Z,22.23
2018-05-16T12:03:42.137Z,22.00
2018-05-16T12:04:42.109Z,22.04
2018-05-16T12:05:42.107Z,22.04
2018-05-16T12:06:42.067Z,22.04
2018-05-16T12:07:42.046Z,22.05
2018-05-16T12:08:42.034Z,22.09
2018-05-16T12:09:42.008Z,22.16
2018-05-16T12:10:41.995Z,22.08
2018-05-16T12:11:41.978Z,22.05
2018-05-16T12:12:41.943Z,21.97
2018-05-16T12:13:41.930Z,22.08
2018-05-16T12:14:42.043Z,22.02
2018-05-16T12:15:41.886Z,22.02
2018-05-16T12:16:41.866Z,22.07
2018-05-16T12:17:41.850Z,22.05
2018-05-16T12:18:41.826Z,22.02
2018-05-16T12:19:41.804Z,22.16
2018-05-16T12:20:41.781Z,22.16
2018-05-16T12:21:41.871Z,22.30
2018-05-16T12:22:41.748Z,22.26
2018-05-16T12:23:41.722Z,22.05
2018-05-16T12:24:41.698Z,21.89
2018-05-16T12:25:41.690Z,22.00
2018-05-16T12:26:41.661Z,22.00
2018-05-16T12:27:41.641Z,21.92
2018-05-16T12:28:41.613Z,21.97
2018-05-16T12:29:41.599Z,21.83
2018-05-16T12:30:41.578Z,21.78
2018-05-16T12:31:41.548Z,21.94
2018-05-16T12:32:41.542Z,21.97
2018-05-16T12:33:41.513Z,21.99
2018-05-16T12:34:41.490Z,22.02
2018-05-16T12:35:41.481Z,21.76
2018-05-16T12:36:41.552Z,21.73
2018-05-16T12:37:41.440Z,21.76
2018-05-16T12:38:41.417Z,21.80
2018-05-16T12:39:41.381Z,22.07
2018-05-16T12:40:41.379Z,22.08
2018-05-16T12:41:41.345Z,22.05
2018-05-16T12:42:41.326Z,22.08
2018-05-16T12:43:41.310Z,22.05
2018-05-16T12:44:41.283Z,22.07
2018-05-16T12:45:41.267Z,22.18
2018-05-16T12:46:41.264Z,22.30
2018-05-16T12:47:41.224Z,22.30
2018-05-16T12:48:41.197Z,22.55
2018-05-16T12:49:41.188Z,22.46
2018-05-16T12:50:41.157Z,22.45
2018-05-16T12:51:41.135Z,22.36
2018-05-16T12:52:41.123Z,22.16